IBB482 GCXO-GCRR
Flight info
| Callsign | IBB482 |
|---|---|
| Flight time | N/A |
| Altitude | 13000 |
| Route | LARYS |
| Aircraft | AT75/M-SDE2E3FGHIRWXY/LB1 |
Departure
| Time | 2026-04-29 21:39 |
|---|---|
| Airport | Tenerife Norte-Ciudad de La Laguna Airport (GCXO) |
Arrival
| Time | N/A |
|---|---|
| Airport | César Manrique-Lanzarote Airport (GCRR) |
| Time | Latitude | Longitude | Altitude | Speed | Heading |
|---|---|---|---|---|---|
| 2026-04-29 21:35 | 28.48880 | -16.35041 | 2080 ft | 0 kts | 19° |
| 2026-04-29 21:35 | 28.48881 | -16.35041 | 2080 ft | 0 kts | 19° |
| 2026-04-29 21:35 | 28.48884 | -16.35033 | 2080 ft | 2 kts | 94° |
| 2026-04-29 21:36 | 28.48863 | -16.35025 | 2080 ft | 6 kts | 192° |
| 2026-04-29 21:36 | 28.48801 | -16.35061 | 2080 ft | 14 kts | 208° |
| 2026-04-29 21:36 | 28.48746 | -16.35128 | 2080 ft | 11 kts | 298° |
| 2026-04-29 21:36 | 28.48782 | -16.35228 | 2080 ft | 16 kts | 291° |
| 2026-04-29 21:37 | 28.48824 | -16.35352 | 2080 ft | 18 kts | 290° |
| 2026-04-29 21:37 | 28.48871 | -16.35492 | 2080 ft | 20 kts | 290° |
| 2026-04-29 21:37 | 28.48880 | -16.35610 | 2080 ft | 11 kts | 266° |
| 2026-04-29 21:37 | 28.48862 | -16.35715 | 2080 ft | 15 kts | 216° |
| 2026-04-29 21:38 | 28.48794 | -16.35728 | 2080 ft | 7 kts | 137° |
| 2026-04-29 21:38 | 28.48711 | -16.35498 | 2080 ft | 72 kts | 110° |
| 2026-04-29 21:38 | 28.48454 | -16.34718 | 2126 ft | 128 kts | 110° |
| 2026-04-29 21:38 | 28.48135 | -16.33753 | 2639 ft | 141 kts | 110° |
| 2026-04-29 21:39 | 28.47740 | -16.32569 | 2909 ft | 170 kts | 110° |
| 2026-04-29 21:39 | 28.47316 | -16.31306 | 3379 ft | 174 kts | 110° |
| 2026-04-29 21:39 | 28.46868 | -16.29977 | 3800 ft | 180 kts | 111° |
| 2026-04-29 21:39 | 28.46414 | -16.28633 | 4264 ft | 182 kts | 111° |
| 2026-04-29 21:40 | 28.45958 | -16.27290 | 4722 ft | 184 kts | 111° |
| 2026-04-29 21:40 | 28.45498 | -16.25940 | 5172 ft | 186 kts | 112° |
| 2026-04-29 21:40 | 28.45028 | -16.24561 | 5619 ft | 188 kts | 112° |
| 2026-04-29 21:40 | 28.44553 | -16.23166 | 6044 ft | 191 kts | 113° |
| 2026-04-29 21:41 | 28.44095 | -16.21818 | 6483 ft | 190 kts | 114° |
| 2026-04-29 21:41 | 28.43620 | -16.20431 | 6885 ft | 193 kts | 114° |
| 2026-04-29 21:41 | 28.43131 | -16.19011 | 7296 ft | 195 kts | 114° |
| 2026-04-29 21:41 | 28.42634 | -16.17575 | 7719 ft | 196 kts | 114° |
| 2026-04-29 21:42 | 28.42136 | -16.16142 | 8117 ft | 198 kts | 114° |
| 2026-04-29 21:42 | 28.41626 | -16.14686 | 8525 ft | 200 kts | 114° |
| 2026-04-29 21:42 | 28.41108 | -16.13214 | 8927 ft | 201 kts | 114° |
| 2026-04-29 21:42 | 28.40578 | -16.11717 | 9320 ft | 203 kts | 114° |
| 2026-04-29 21:43 | 28.40054 | -16.10244 | 9694 ft | 205 kts | 114° |
| 2026-04-29 21:43 | 28.39517 | -16.08742 | 10081 ft | 206 kts | 114° |
| 2026-04-29 21:43 | 28.38974 | -16.07229 | 10445 ft | 208 kts | 114° |
| 2026-04-29 21:43 | 28.38425 | -16.05706 | 10810 ft | 209 kts | 114° |
| 2026-04-29 21:44 | 28.37900 | -16.04159 | 11147 ft | 213 kts | 109° |
| 2026-04-29 21:44 | 28.37926 | -16.02484 | 11500 ft | 213 kts | 78° |
| 2026-04-29 21:44 | 28.38435 | -16.00895 | 11815 ft | 217 kts | 67° |
| 2026-04-29 21:44 | 28.39069 | -15.99318 | 12139 ft | 220 kts | 65° |
| 2026-04-29 21:45 | 28.39716 | -15.97768 | 12484 ft | 221 kts | 64° |
| 2026-04-29 21:45 | 28.40394 | -15.96159 | 12801 ft | 225 kts | 64° |
| 2026-04-29 21:45 | 28.41073 | -15.94550 | 12929 ft | 237 kts | 63° |
| 2026-04-29 21:45 | 28.41808 | -15.92812 | 12990 ft | 250 kts | 62° |
| 2026-04-29 21:46 | 28.42597 | -15.90956 | 13001 ft | 263 kts | 62° |
| 2026-04-29 21:46 | 28.43396 | -15.89085 | 13003 ft | 272 kts | 62° |
| 2026-04-29 21:46 | 28.44235 | -15.87124 | 13004 ft | 279 kts | 64° |
| 2026-04-29 21:46 | 28.45092 | -15.85114 | 13001 ft | 282 kts | 64° |
| 2026-04-29 21:47 | 28.45947 | -15.83097 | 12999 ft | 285 kts | 64° |
| 2026-04-29 21:47 | 28.46528 | -15.81725 | 12999 ft | 286 kts | 64° |
| 2026-04-29 21:47 | 28.47581 | -15.79236 | 12998 ft | 288 kts | 64° |
| 2026-04-29 21:47 | 28.48408 | -15.77280 | 12998 ft | 288 kts | 64° |
| 2026-04-29 21:48 | 28.49280 | -15.75216 | 12998 ft | 289 kts | 64° |
| 2026-04-29 21:48 | 28.50156 | -15.73141 | 12998 ft | 289 kts | 64° |
| 2026-04-29 21:48 | 28.51028 | -15.71079 | 12998 ft | 290 kts | 65° |
| 2026-04-29 21:48 | 28.51897 | -15.69003 | 12997 ft | 291 kts | 65° |
| 2026-04-29 21:49 | 28.52764 | -15.66916 | 12998 ft | 292 kts | 65° |
| 2026-04-29 21:49 | 28.53623 | -15.64846 | 12997 ft | 293 kts | 65° |
| 2026-04-29 21:49 | 28.54489 | -15.62754 | 12997 ft | 293 kts | 65° |
| 2026-04-29 21:49 | 28.55360 | -15.60650 | 12997 ft | 293 kts | 65° |
| 2026-04-29 21:50 | 28.56231 | -15.58545 | 12997 ft | 294 kts | 65° |
| 2026-04-29 21:50 | 28.57100 | -15.56443 | 12996 ft | 294 kts | 65° |
| 2026-04-29 21:50 | 28.57690 | -15.55017 | 12996 ft | 294 kts | 65° |
| 2026-04-29 21:50 | 28.58844 | -15.52225 | 12996 ft | 294 kts | 65° |
| 2026-04-29 21:51 | 28.59416 | -15.50840 | 12996 ft | 294 kts | 65° |
| 2026-04-29 21:51 | 28.60583 | -15.48015 | 12996 ft | 295 kts | 65° |
| 2026-04-29 21:51 | 28.62034 | -15.44499 | 12995 ft | 295 kts | 65° |
| 2026-04-29 21:52 | 28.62905 | -15.42385 | 12995 ft | 295 kts | 65° |
| 2026-04-29 21:52 | 28.63779 | -15.40265 | 12995 ft | 295 kts | 65° |
| 2026-04-29 21:52 | 28.64654 | -15.38142 | 12995 ft | 295 kts | 65° |
| 2026-04-29 21:52 | 28.65524 | -15.36028 | 12995 ft | 295 kts | 65° |
| 2026-04-29 21:53 | 28.66395 | -15.33913 | 12995 ft | 296 kts | 65° |
| 2026-04-29 21:53 | 28.67270 | -15.31786 | 12995 ft | 296 kts | 65° |
| 2026-04-29 21:53 | 28.68138 | -15.29675 | 12995 ft | 296 kts | 65° |
| 2026-04-29 21:53 | 28.69011 | -15.27551 | 12994 ft | 296 kts | 65° |
| 2026-04-29 21:54 | 28.69880 | -15.25437 | 12994 ft | 296 kts | 65° |
| 2026-04-29 21:54 | 28.70757 | -15.23303 | 12994 ft | 296 kts | 65° |
| 2026-04-29 21:54 | 28.71630 | -15.21177 | 12994 ft | 295 kts | 65° |
| 2026-04-29 21:54 | 28.72502 | -15.19058 | 12994 ft | 295 kts | 65° |
| 2026-04-29 21:55 | 28.73373 | -15.16940 | 12993 ft | 295 kts | 65° |
| 2026-04-29 21:55 | 28.74236 | -15.14845 | 12993 ft | 295 kts | 65° |
| 2026-04-29 21:55 | 28.75119 | -15.12696 | 12993 ft | 295 kts | 65° |
| 2026-04-29 21:55 | 28.75976 | -15.10608 | 12994 ft | 294 kts | 65° |
| 2026-04-29 21:56 | 28.76839 | -15.08498 | 12992 ft | 293 kts | 65° |
| 2026-04-29 21:56 | 28.77698 | -15.06392 | 12992 ft | 293 kts | 65° |
| 2026-04-29 21:56 | 28.78556 | -15.04288 | 12991 ft | 292 kts | 65° |
| 2026-04-29 21:56 | 28.79412 | -15.02189 | 12990 ft | 292 kts | 65° |
| 2026-04-29 21:57 | 28.80267 | -15.00094 | 12988 ft | 292 kts | 65° |
| 2026-04-29 21:57 | 28.81136 | -14.97998 | 12980 ft | 292 kts | 65° |
| 2026-04-29 21:57 | 28.82020 | -14.95899 | 12978 ft | 292 kts | 65° |
| 2026-04-29 21:57 | 28.82892 | -14.93813 | 12977 ft | 292 kts | 65° |
| 2026-04-29 21:58 | 28.83754 | -14.91712 | 12979 ft | 292 kts | 65° |
| 2026-04-29 21:58 | 28.84598 | -14.89648 | 12979 ft | 292 kts | 65° |
| 2026-04-29 21:58 | 28.85486 | -14.87520 | 12979 ft | 292 kts | 65° |
| 2026-04-29 21:58 | 28.86352 | -14.85452 | 12979 ft | 292 kts | 65° |
| 2026-04-29 21:59 | 28.87190 | -14.83324 | 12971 ft | 292 kts | 69° |
| 2026-04-29 21:59 | 28.87663 | -14.81089 | 12982 ft | 290 kts | 82° |
| 2026-04-29 21:59 | 28.87855 | -14.78814 | 12982 ft | 290 kts | 88° |
| 2026-04-29 21:59 | 28.87923 | -14.76468 | 12980 ft | 289 kts | 90° |
| 2026-04-29 22:00 | 28.87946 | -14.74197 | 12977 ft | 289 kts | 91° |